createdAt,value
2018-07-17T00:02:38.429Z,4.58
2018-07-17T00:08:07.684Z,4.95
2018-07-17T00:13:37.622Z,4.05
2018-07-17T00:19:06.921Z,5.42
2018-07-17T00:24:36.215Z,5.33
2018-07-17T00:30:05.565Z,5.75
2018-07-17T00:35:35.047Z,6.60
2018-07-17T00:41:04.309Z,6.20
2018-07-17T00:46:33.537Z,5.25
2018-07-17T00:52:02.889Z,5.83
2018-07-17T00:57:31.961Z,6.10
2018-07-17T01:03:09.106Z,5.83
2018-07-17T01:08:44.050Z,5.10
2018-07-17T01:14:31.519Z,6.10
2018-07-17T01:20:00.856Z,6.58
2018-07-17T01:25:30.077Z,6.08
2018-07-17T01:30:59.321Z,5.40
2018-07-17T01:36:30.774Z,5.45
2018-07-17T01:42:00.815Z,8.05
2018-07-17T01:47:29.744Z,6.03
2018-07-17T01:52:59.051Z,7.50
2018-07-17T01:58:28.273Z,6.30
2018-07-17T02:03:57.557Z,6.85
2018-07-17T02:09:26.901Z,6.80
2018-07-17T02:14:56.130Z,7.37
2018-07-17T02:20:27.449Z,6.17
2018-07-17T02:25:56.673Z,7.10
2018-07-17T02:31:26.949Z,7.83
2018-07-17T02:36:56.208Z,7.20
2018-07-17T02:42:25.469Z,7.35
2018-07-17T02:47:54.666Z,6.90
2018-07-17T02:53:23.997Z,6.85
2018-07-17T02:59:01.317Z,6.80
2018-07-17T03:04:32.318Z,6.80
2018-07-17T03:10:01.600Z,6.80
2018-07-17T03:15:30.965Z,6.30
2018-07-17T03:21:00.209Z,6.25
2018-07-17T03:26:29.466Z,5.78
2018-07-17T03:31:58.705Z,6.60
2018-07-17T03:37:27.999Z,7.12
2018-07-17T03:42:57.250Z,6.37
2018-07-17T03:48:26.394Z,6.28
2018-07-17T03:53:55.727Z,6.30
2018-07-17T03:59:25.063Z,5.33
2018-07-17T04:04:54.303Z,6.35
2018-07-17T04:10:23.711Z,7.17
2018-07-17T04:15:53.105Z,7.03
2018-07-17T04:21:22.437Z,6.35
2018-07-17T04:26:52.084Z,6.70
2018-07-17T04:32:21.485Z,6.17
2018-07-17T04:37:50.801Z,6.55
2018-07-17T04:43:20.151Z,7.33
2018-07-17T04:48:49.635Z,6.97
2018-07-17T04:54:19.261Z,6.45
2018-07-17T04:59:48.584Z,5.60
2018-07-17T05:05:17.899Z,6.45
2018-07-17T05:10:47.323Z,5.85
2018-07-17T05:16:16.718Z,5.70
2018-07-17T05:21:46.041Z,5.47
2018-07-17T05:27:17.569Z,6.00
2018-07-17T05:32:46.800Z,5.60
2018-07-17T05:38:16.397Z,6.40
2018-07-17T05:43:45.668Z,4.62
2018-07-17T05:49:16.268Z,5.42
2018-07-17T05:54:45.672Z,5.00
2018-07-17T06:00:14.908Z,5.40
2018-07-17T06:05:44.125Z,5.13
2018-07-17T06:11:13.372Z,5.87
2018-07-17T06:16:42.588Z,5.30
2018-07-17T06:22:11.887Z,4.92
2018-07-17T06:27:41.181Z,6.50
2018-07-17T06:33:10.413Z,6.12
2018-07-17T06:38:39.604Z,6.40
2018-07-17T06:44:08.893Z,5.35
2018-07-17T06:49:39.253Z,5.42
2018-07-17T06:55:08.501Z,5.30
2018-07-17T07:00:38.458Z,6.13
2018-07-17T07:06:07.703Z,5.43
2018-07-17T07:11:37.163Z,5.37
2018-07-17T07:17:06.630Z,5.50
2018-07-17T07:22:35.838Z,4.80
2018-07-17T07:28:05.110Z,5.17
2018-07-17T07:33:34.348Z,4.40
2018-07-17T07:39:04.092Z,3.80
2018-07-17T07:44:34.288Z,5.17
2018-07-17T07:50:03.614Z,3.67
2018-07-17T07:55:33.491Z,4.77
2018-07-17T08:01:02.698Z,3.95
2018-07-17T08:06:32.198Z,4.53
2018-07-17T08:12:02.084Z,4.40
2018-07-17T08:17:31.309Z,4.10
2018-07-17T08:23:00.530Z,3.52
2018-07-17T08:28:33.655Z,4.60
2018-07-17T08:34:02.882Z,4.33
2018-07-17T08:39:35.062Z,4.10
2018-07-17T08:45:04.425Z,3.77
2018-07-17T08:50:33.718Z,3.83
2018-07-17T08:56:03.011Z,3.52
2018-07-17T09:01:31.980Z,3.13
2018-07-17T09:07:01.224Z,3.33
2018-07-17T09:12:30.442Z,3.80
2018-07-17T09:18:00.052Z,3.20
2018-07-17T09:23:29.332Z,3.80
2018-07-17T09:28:58.590Z,3.80
2018-07-17T09:34:27.939Z,3.30
2018-07-17T09:39:57.165Z,2.80
2018-07-17T09:45:26.582Z,3.20
2018-07-17T09:50:55.853Z,3.10
2018-07-17T09:56:25.134Z,3.00
2018-07-17T10:01:59.508Z,3.10
2018-07-17T10:07:29.673Z,2.83
2018-07-17T10:12:58.919Z,2.50
2018-07-17T10:18:28.185Z,2.90
2018-07-17T10:23:57.363Z,2.50
2018-07-17T10:29:26.577Z,2.70
2018-07-17T10:34:55.783Z,2.90
2018-07-17T10:40:25.051Z,2.60
2018-07-17T10:45:54.423Z,3.03
2018-07-17T10:51:23.757Z,2.53
2018-07-17T10:56:53.073Z,2.55
2018-07-17T11:02:22.405Z,2.40
2018-07-17T11:07:51.683Z,2.70
2018-07-17T11:13:21.095Z,2.57
2018-07-17T11:18:50.463Z,2.60
2018-07-17T11:24:19.789Z,2.30
2018-07-17T11:29:49.168Z,2.77
2018-07-17T11:35:18.454Z,3.00
2018-07-17T11:40:47.724Z,3.25
2018-07-17T11:46:17.043Z,3.03
2018-07-17T11:51:46.340Z,3.17
2018-07-17T11:57:15.613Z,3.70
2018-07-17T12:02:44.880Z,2.70
2018-07-17T12:08:14.098Z,3.00
2018-07-17T12:13:43.287Z,2.47
2018-07-17T12:19:12.513Z,2.93
2018-07-17T12:24:41.725Z,2.67
2018-07-17T12:30:11.009Z,2.57
2018-07-17T12:35:40.172Z,2.73
2018-07-17T12:41:09.511Z,2.70
2018-07-17T12:46:38.818Z,3.27
2018-07-17T12:52:08.074Z,3.27
2018-07-17T12:57:37.311Z,2.95
2018-07-17T13:03:08.657Z,3.47
2018-07-17T13:08:37.877Z,2.75
2018-07-17T13:14:07.163Z,2.27
2018-07-17T13:19:36.411Z,2.00
2018-07-17T13:25:07.057Z,1.60
2018-07-17T13:30:36.376Z,1.95
2018-07-17T13:36:05.603Z,2.10
2018-07-17T13:41:34.824Z,1.70
2018-07-17T13:47:04.106Z,2.30
2018-07-17T13:52:33.382Z,2.10
2018-07-17T13:58:02.669Z,3.22
2018-07-17T14:03:31.893Z,2.30
2018-07-17T14:09:01.109Z,1.87
2018-07-17T14:14:32.418Z,1.80
2018-07-17T14:20:01.763Z,1.77
2018-07-17T14:25:31.040Z,2.07
2018-07-17T14:31:00.237Z,3.00
2018-07-17T14:36:29.450Z,3.47
2018-07-17T14:41:58.675Z,2.97
2018-07-17T14:47:27.595Z,2.20
2018-07-17T14:52:56.846Z,2.10
2018-07-17T14:58:26.103Z,2.70
2018-07-17T15:03:55.303Z,2.60
2018-07-17T15:09:24.574Z,3.12
2018-07-17T15:14:53.827Z,4.15
2018-07-17T15:20:23.109Z,3.75
2018-07-17T15:25:53.399Z,3.77
2018-07-17T15:31:22.659Z,4.15
2018-07-17T15:36:51.979Z,4.37
2018-07-17T15:42:21.388Z,2.60
2018-07-17T15:47:50.709Z,2.67
2018-07-17T15:53:19.992Z,2.40
2018-07-17T15:58:49.321Z,1.67
2018-07-17T16:04:18.834Z,1.70
2018-07-17T16:09:48.251Z,2.52
2018-07-17T16:15:17.589Z,2.75
2018-07-17T16:20:46.948Z,3.00
2018-07-17T16:26:16.251Z,2.75
2018-07-17T16:31:45.563Z,2.33
2018-07-17T16:37:14.799Z,2.65
2018-07-17T16:42:44.011Z,2.55
2018-07-17T16:48:13.244Z,2.42
2018-07-17T16:53:42.519Z,2.72
2018-07-17T16:59:12.156Z,2.85
2018-07-17T17:04:41.089Z,3.80
2018-07-17T17:10:10.382Z,2.20
2018-07-17T17:15:39.656Z,2.20
2018-07-17T17:21:08.910Z,2.40
2018-07-17T17:26:38.151Z,2.50
2018-07-17T17:32:07.491Z,2.85
2018-07-17T17:37:36.774Z,2.10
2018-07-17T17:43:07.486Z,1.90
2018-07-17T17:48:36.777Z,3.70
2018-07-17T17:54:07.053Z,3.12
2018-07-17T17:59:39.164Z,3.70
2018-07-17T18:05:08.598Z,3.22
2018-07-17T18:10:37.787Z,3.33
2018-07-17T18:16:06.803Z,2.30
2018-07-17T18:21:36.094Z,3.02
2018-07-17T18:27:05.375Z,2.70
2018-07-17T18:32:34.793Z,3.05
2018-07-17T18:38:04.073Z,4.12
2018-07-17T18:43:37.087Z,2.92
2018-07-17T18:49:06.507Z,2.80
2018-07-17T18:54:36.896Z,3.35
2018-07-17T19:00:07.116Z,2.67
2018-07-17T19:05:36.935Z,2.70
2018-07-17T19:11:06.494Z,2.87
2018-07-17T19:16:40.396Z,3.10
2018-07-17T19:22:14.898Z,2.67
2018-07-17T19:27:47.558Z,2.60
2018-07-17T19:33:17.473Z,2.40
2018-07-17T19:38:46.814Z,2.70
2018-07-17T19:44:22.693Z,2.90
2018-07-17T19:49:52.009Z,3.27
2018-07-17T19:55:27.666Z,3.08
2018-07-17T20:00:56.970Z,2.75
2018-07-17T20:06:26.304Z,2.70
2018-07-17T20:11:55.676Z,2.75
2018-07-17T20:17:25.010Z,3.80
2018-07-17T20:22:54.543Z,3.05
2018-07-17T20:28:23.905Z,2.83
2018-07-17T20:33:55.172Z,2.50
2018-07-17T20:39:29.542Z,3.00
2018-07-17T20:44:58.783Z,2.70
2018-07-17T20:50:27.993Z,3.05
2018-07-17T20:55:57.301Z,2.95
2018-07-17T21:01:26.716Z,2.75
2018-07-17T21:06:58.319Z,3.10
2018-07-17T21:12:27.615Z,3.10
2018-07-17T21:17:57.165Z,3.15
2018-07-17T21:23:26.659Z,2.80
2018-07-17T21:28:55.994Z,2.70
2018-07-17T21:34:25.180Z,2.77
2018-07-17T21:39:54.586Z,3.10
2018-07-17T21:45:23.914Z,2.58
2018-07-17T21:50:53.310Z,2.80
2018-07-17T21:56:22.562Z,3.08
2018-07-17T22:01:53.370Z,2.95
2018-07-17T22:07:23.418Z,2.83
2018-07-17T22:12:54.010Z,2.60
2018-07-17T22:18:25.318Z,2.37
2018-07-17T22:23:55.967Z,2.37
2018-07-17T22:29:26.079Z,3.02
2018-07-17T22:34:56.039Z,3.02
2018-07-17T22:40:26.140Z,2.85
2018-07-17T22:45:56.394Z,2.33
2018-07-17T22:51:26.396Z,3.12
2018-07-17T22:56:56.521Z,2.85
2018-07-17T23:02:26.658Z,3.10
2018-07-17T23:07:57.036Z,2.50
2018-07-17T23:13:28.622Z,3.25
2018-07-17T23:18:58.149Z,3.02
2018-07-17T23:24:27.658Z,2.70
2018-07-17T23:29:57.033Z,3.10
2018-07-17T23:35:26.486Z,3.10
2018-07-17T23:40:55.886Z,3.00
2018-07-17T23:46:25.273Z,2.87
2018-07-17T23:51:54.669Z,2.62
2018-07-17T23:57:24.709Z,2.95
